Map

Track Data

SID SEASON NUMBER BASIN SUBBASIN NAME ISO_TIME NATURE LAT LON WMO_WIND WMO_PRES WMO_AGENCY TRACK_TYPE DIST2LAND LANDFALL IFLAG USA_AGENCY USA_ATCF_ID USA_LAT USA_LON USA_RECORD USA_STATUS USA_WIND USA_PRES USA_SSHS USA_R34_NE USA_R34_SE USA_R34_SW USA_R34_NW USA_R50_NE USA_R50_SE USA_R50_SW USA_R50_NW USA_R64_NE USA_R64_SE USA_R64_SW USA_R64_NW USA_POCI USA_ROCI USA_RMW USA_EYE TOKYO_LAT TOKYO_LON TOKYO_GRADE TOKYO_WIND TOKYO_PRES TOKYO_R50_DIR TOKYO_R50_LONG TOKYO_R50_SHORT TOKYO_R30_DIR TOKYO_R30_LONG TOKYO_R30_SHORT TOKYO_LAND CMA_LAT CMA_LON CMA_CAT CMA_WIND CMA_PRES HKO_LAT HKO_LON HKO_CAT HKO_WIND HKO_PRES NEWDELHI_LAT NEWDELHI_LON NEWDELHI_GRADE NEWDELHI_WIND NEWDELHI_PRES NEWDELHI_CI NEWDELHI_DP NEWDELHI_POCI REUNION_LAT REUNION_LON REUNION_TYPE REUNION_WIND REUNION_PRES REUNION_TNUM REUNION_CI REUNION_RMW REUNION_R34_NE REUNION_R34_SE REUNION_R34_SW REUNION_R34_NW REUNION_R50_NE REUNION_R50_SE REUNION_R50_SW REUNION_R50_NW REUNION_R64_NE REUNION_R64_SE REUNION_R64_SW REUNION_R64_NW BOM_LAT BOM_LON BOM_TYPE BOM_WIND BOM_PRES BOM_TNUM BOM_CI BOM_RMW BOM_R34_NE BOM_R34_SE BOM_R34_SW BOM_R34_NW BOM_R50_NE BOM_R50_SE BOM_R50_SW BOM_R50_NW BOM_R64_NE BOM_R64_SE BOM_R64_SW BOM_R64_NW BOM_ROCI BOM_POCI BOM_EYE BOM_POS_METHOD BOM_PRES_METHOD NADI_LAT NADI_LON NADI_CAT NADI_WIND NADI_PRES WELLINGTON_LAT WELLINGTON_LON WELLINGTON_WIND WELLINGTON_PRES DS824_LAT DS824_LON DS824_STAGE DS824_WIND DS824_PRES TD9636_LAT TD9636_LON TD9636_STAGE TD9636_WIND TD9636_PRES TD9635_LAT TD9635_LON TD9635_WIND TD9635_PRES TD9635_ROCI NEUMANN_LAT NEUMANN_LON NEUMANN_CLASS NEUMANN_WIND NEUMANN_PRES MLC_LAT MLC_LON MLC_CLASS MLC_WIND MLC_PRES USA_GUST BOM_GUST BOM_GUST_PER REUNION_GUST REUNION_GUST_PER USA_SEAHGT USA_SEARAD_NE USA_SEARAD_SE USA_SEARAD_SW USA_SEARAD_NW STORM_SPEED STORM_DIR
1967207N20088 1967 57 NI BB NOT_NAMED 1967-07-25 18:00:00 TS 20.4000 88.4000 main 134 123 O________O____ jtwc_io IO041967 20.4000 88.4000 -1 20.4000 88.4000 TC 2 308
1967207N20088 1967 57 NI BB NOT_NAMED 1967-07-25 21:00:00 TS 20.4600 88.3175 main 123 123 P________P____ IO041967 20.4600 88.3175 -1 20.4600 88.3175 TC 2 299
1967207N20088 1967 57 NI BB NOT_NAMED 1967-07-26 00:00:00 TS 20.5000 88.2000 main 123 106 O________O____ jtwc_io IO041967 20.5000 88.2000 -1 20.5000 88.2000 TC 25 3 280
1967207N20088 1967 57 NI BB NOT_NAMED 1967-07-26 03:00:00 TS 20.5067 88.0200 main 106 86 P________PO___ IO041967 20.5075 88.0225 -1 20.5075 88.0225 TC 25 20.5000 88.0000 1 4 270
1967207N20088 1967 57 NI BB NOT_NAMED 1967-07-26 06:00:00 TS 20.5002 87.7950 main 86 66 O________OP___ jtwc_io IO041967 20.5000 87.8000 -1 20.5000 87.8000 TC 25 20.5008 87.7751 1 4 268
1967207N20088 1967 57 NI BB NOT_NAMED 1967-07-26 09:00:00 TS 20.4921 87.5500 main 66 38 P________PP___ IO041967 20.4850 87.5499 -1 20.4850 87.5499 TC 25 20.5111 87.5502 1 5 272
1967207N20088 1967 57 NI BB NOT_NAMED 1967-07-26 12:00:00 TS 20.5136 87.3084 main 38 15 O________OP___ jtwc_io IO041967 20.5000 87.3000 -1 20.5000 87.3000 TC 25 20.5409 87.3252 1 4 282
1967207N20088 1967 57 NI BB NOT_NAMED 1967-07-26 15:00:00 TS 20.5849 87.1000 main 15 0 P________PO___ IO041967 20.5774 87.1000 -1 20.5774 87.1000 TC 25 20.6000 87.1000 1 4 295
1967207N20088 1967 57 NI BB NOT_NAMED 1967-07-26 18:00:00 TS 20.6982 86.8889 main 0 0 O________OP___ jtwc_io IO041967 20.7000 86.9000 -1 20.7000 86.9000 TC 25 20.6947 86.8667 1 5 303
1967207N20088 1967 57 NI BB NOT_NAMED 1967-07-26 21:00:00 TS 20.8387 86.6838 main 0 0 P________PP___ IO041967 20.8494 86.7323 -1 20.8494 86.7323 TC 25 20.8173 86.5867 1 6 299
1967207N20088 1967 57 NI BB NOT_NAMED 1967-07-27 00:00:00 TS 20.9855 86.3378 main 0 0 O________OP___ jtwc_io IO041967 21.0000 86.4000 -1 21.0000 86.4000 TC 25 20.9564 86.2134 1 9 286
1967207N20088 1967 57 NI BB NOT_NAMED 1967-07-27 03:00:00 TS 21.1001 85.7265 main 0 0 P________PO___ IO041967 21.1002 85.7398 -1 21.1002 85.7398 TC 25 21.1000 85.7000 1 13 280
1967207N20088 1967 57 NI BB NOT_NAMED 1967-07-27 06:00:00 TS 21.2129 84.9314 main 0 0 O________OP___ jtwc_io IO041967 21.2000 84.9000 -1 21.2000 84.9000 TC 25 21.2386 84.9942 1 15 280
1967207N20088 1967 57 NI BB NOT_NAMED 1967-07-27 09:00:00 TS 21.3580 84.0936 main 0 0 P________PP___ IO041967 21.3498 84.0651 -1 21.3498 84.0651 TC 25 21.3744 84.1506 1 16 280
1967207N20088 1967 57 NI BB NOT_NAMED 1967-07-27 12:00:00 TS 21.4992 83.2105 main 0 0 O________OP___ jtwc_io IO041967 21.5000 83.2000 -1 21.5000 83.2000 TC 25 21.4977 83.2316 1 17 279
1967207N20088 1967 57 NI BB NOT_NAMED 1967-07-27 15:00:00 TS 21.6147 82.3333 main 0 0 P________PO___ IO041967 21.6221 82.3500 -1 21.6221 82.3500 TC 25 21.6000 82.3000 1 16 276
1967207N20088 1967 57 NI BB NOT_NAMED 1967-07-27 18:00:00 TS 21.6813 81.4599 main 0 0 O________OP___ jtwc_io IO041967 21.7000 81.5000 -1 21.7000 81.5000 TC 25 21.6439 81.3798 1 16 272
1967207N20088 1967 57 NI BB NOT_NAMED 1967-07-27 21:00:00 TS 21.6853 80.5849 main 0 0 P________PP___ IO041967 21.6922 80.6419 -1 21.6922 80.6419 TC 25 21.6715 80.4709 1 16 271
1967207N20088 1967 57 NI BB NOT_NAMED 1967-07-28 00:00:00 TS 21.7043 79.7422 main 0 0 O________OP___ jtwc_io IO041967 21.7000 79.8000 -1 21.7000 79.8000 TC 25 21.7130 79.6267 1 16 275
1967207N20088 1967 57 NI BB NOT_NAMED 1967-07-28 03:00:00 TS 21.8136 78.9119 main 0 0 P________PO___ IO041967 21.8203 78.9179 -1 21.8203 78.9179 TC 25 21.8000 78.9000 1 14 282
1967207N20088 1967 57 NI BB NOT_NAMED 1967-07-28 06:00:00 TS 21.9880 78.2523 main 0 0 O________OP___ jtwc_io IO041967 22.0000 78.2000 -1 22.0000 78.2000 TC 25 21.9639 78.3568 1 10 291
1967207N20088 1967 57 NI AS NOT_NAMED 1967-07-28 09:00:00 TS 22.1776 77.8696 main 0 0 P________PP___ IO041967 22.1767 77.8395 -1 22.1767 77.8395 TC 25 22.1793 77.9297 1 7 304
1967207N20088 1967 57 NI AS NOT_NAMED 1967-07-28 12:00:00 TS 22.4100 77.5876 main 0 0 O________OP___ jtwc_io IO041967 22.4000 77.6000 -1 22.4000 77.6000 TC 25 22.4301 77.5627 1 8 311
1967207N20088 1967 57 NI AS NOT_NAMED 1967-07-28 15:00:00 TS 22.6950 77.2150 main 0 0 P________PO___ IO041967 22.6924 77.2225 -1 22.6924 77.2225 TC 25 22.7000 77.2000 1 9 308
1967207N20088 1967 57 NI AS NOT_NAMED 1967-07-28 18:00:00 TS 22.9795 76.8067 main 0 0 O________OP___ jtwc_io IO041967 23.0000 76.8000 -1 23.0000 76.8000 TC 25 22.9385 76.8200 1 9 305
1967207N20088 1967 57 NI AS NOT_NAMED 1967-07-28 21:00:00 TS 23.2314 76.3894 main 0 0 P________PP___ IO041967 23.2498 76.3721 -1 23.2498 76.3721 TC 25 23.1945 76.4240 1 10 302
1967207N20088 1967 57 NI AS NOT_NAMED 1967-07-29 00:00:00 TS 23.4928 75.9221 main 0 0 O________OP___ jtwc_io IO041967 23.5000 75.9000 -1 23.5000 75.9000 TC 25 23.4784 75.9662 1 11 302
1967207N20088 1967 57 NI AS NOT_NAMED 1967-07-29 03:00:00 TS 23.7845 75.4112 main 0 0 P________PO___ IO041967 23.7768 75.4167 -1 23.7768 75.4167 TC 25 23.8000 75.4000 1 12 301
1967207N20088 1967 57 NI AS NOT_NAMED 1967-07-29 06:00:00 TS 24.1258 74.7569 main 0 0 O________OP___ jtwc_io IO041967 24.1000 74.8000 -1 24.1000 74.8000 TC 25 24.1645 74.6921 1 15 298
1967207N20088 1967 57 NI AS NOT_NAMED 1967-07-29 09:00:00 TS 24.5174 73.9230 main 0 0 P________PP___ IO041967 24.4842 73.9667 -1 24.4842 73.9667 TC 25 24.5618 73.8648 1 18 297
1967207N20088 1967 57 NI AS NOT_NAMED 1967-07-29 12:00:00 TS 24.9390 72.9774 main 0 0 O________OP___ jtwc_io IO041967 24.9000 73.0000 -1 24.9000 73.0000 TC 25 24.9780 72.9548 1 20 297
1967207N20088 1967 57 NI AS NOT_NAMED 1967-07-29 15:00:00 NR 25.4000 72.0000 main 0 __________O___ IO041967 -1 TC 25.4000 72.0000 1 20 298

About IBTrACS Database

This database is a web-friendly format of International Best Track Archive for Climate Stewardship (IBTrACS), a global best track data archive curated by NOAA dating back to 1842.

Updated: 2021-11-26